sensor_id;sensor_type;location;lat;lon;timestamp;temperature;humidity
51811;DHT22;52468;40.116;18.296;2023-04-15T00:01:26;11.50;73.30
51811;DHT22;52468;40.116;18.296;2023-04-15T00:03:54;11.50;73.30
51811;DHT22;52468;40.116;18.296;2023-04-15T00:06:22;11.50;73.50
51811;DHT22;52468;40.116;18.296;2023-04-15T00:08:50;11.50;73.80
51811;DHT22;52468;40.116;18.296;2023-04-15T00:11:18;11.50;73.50
51811;DHT22;52468;40.116;18.296;2023-04-15T00:13:46;11.50;73.50
51811;DHT22;52468;40.116;18.296;2023-04-15T00:16:14;11.50;73.50
51811;DHT22;52468;40.116;18.296;2023-04-15T00:18:42;11.60;73.50
51811;DHT22;52468;40.116;18.296;2023-04-15T00:21:10;11.50;73.70
51811;DHT22;52468;40.116;18.296;2023-04-15T00:23:38;11.50;73.80
51811;DHT22;52468;40.116;18.296;2023-04-15T00:26:06;11.50;74.20
51811;DHT22;52468;40.116;18.296;2023-04-15T00:28:35;11.50;74.40
51811;DHT22;52468;40.116;18.296;2023-04-15T00:31:03;11.50;74.30
51811;DHT22;52468;40.116;18.296;2023-04-15T00:33:30;11.50;74.40
51811;DHT22;52468;40.116;18.296;2023-04-15T00:35:58;11.50;74.60
51811;DHT22;52468;40.116;18.296;2023-04-15T00:38:26;11.50;74.50
51811;DHT22;52468;40.116;18.296;2023-04-15T00:40:55;11.50;74.60
51811;DHT22;52468;40.116;18.296;2023-04-15T00:43:23;11.50;74.70
51811;DHT22;52468;40.116;18.296;2023-04-15T00:45:53;11.50;75.00
51811;DHT22;52468;40.116;18.296;2023-04-15T00:48:25;11.50;75.10
51811;DHT22;52468;40.116;18.296;2023-04-15T00:50:53;11.50;75.00
51811;DHT22;52468;40.116;18.296;2023-04-15T00:53:21;11.50;75.10
51811;DHT22;52468;40.116;18.296;2023-04-15T00:55:49;11.50;75.10
51811;DHT22;52468;40.116;18.296;2023-04-15T00:58:18;11.60;75.20
51811;DHT22;52468;40.116;18.296;2023-04-15T01:00:46;11.50;75.30
51811;DHT22;52468;40.116;18.296;2023-04-15T01:03:14;11.50;75.40
51811;DHT22;52468;40.116;18.296;2023-04-15T01:05:42;11.50;75.70
51811;DHT22;52468;40.116;18.296;2023-04-15T01:08:10;11.50;75.40
51811;DHT22;52468;40.116;18.296;2023-04-15T01:10:38;11.50;75.40
51811;DHT22;52468;40.116;18.296;2023-04-15T01:13:06;11.50;75.40
51811;DHT22;52468;40.116;18.296;2023-04-15T01:15:35;11.50;75.30
51811;DHT22;52468;40.116;18.296;2023-04-15T01:18:03;11.50;75.20
51811;DHT22;52468;40.116;18.296;2023-04-15T01:20:31;11.50;75.10
51811;DHT22;52468;40.116;18.296;2023-04-15T01:23:00;11.50;75.30
51811;DHT22;52468;40.116;18.296;2023-04-15T01:25:32;11.50;75.10
51811;DHT22;52468;40.116;18.296;2023-04-15T01:28:00;11.40;75.10
51811;DHT22;52468;40.116;18.296;2023-04-15T01:30:33;11.40;75.00
51811;DHT22;52468;40.116;18.296;2023-04-15T01:33:01;11.30;75.20
51811;DHT22;52468;40.116;18.296;2023-04-15T01:35:47;11.20;75.60
51811;DHT22;52468;40.116;18.296;2023-04-15T01:38:15;11.20;75.80
51811;DHT22;52468;40.116;18.296;2023-04-15T01:40:44;11.20;75.90
51811;DHT22;52468;40.116;18.296;2023-04-15T01:43:13;11.20;76.00
51811;DHT22;52468;40.116;18.296;2023-04-15T01:45:43;11.20;76.40
51811;DHT22;52468;40.116;18.296;2023-04-15T01:48:12;11.20;76.30
51811;DHT22;52468;40.116;18.296;2023-04-15T01:50:42;11.20;76.40
51811;DHT22;52468;40.116;18.296;2023-04-15T01:53:11;11.10;76.30
51811;DHT22;52468;40.116;18.296;2023-04-15T01:55:41;11.20;76.10
51811;DHT22;52468;40.116;18.296;2023-04-15T01:58:10;11.20;76.20
51811;DHT22;52468;40.116;18.296;2023-04-15T02:00:40;11.20;76.10
51811;DHT22;52468;40.116;18.296;2023-04-15T02:03:09;11.10;76.30
51811;DHT22;52468;40.116;18.296;2023-04-15T02:05:38;11.10;76.30
51811;DHT22;52468;40.116;18.296;2023-04-15T02:08:08;11.20;76.30
51811;DHT22;52468;40.116;18.296;2023-04-15T02:10:39;11.20;76.20
51811;DHT22;52468;40.116;18.296;2023-04-15T02:13:08;11.10;76.10
51811;DHT22;52468;40.116;18.296;2023-04-15T02:15:37;11.20;76.10
51811;DHT22;52468;40.116;18.296;2023-04-15T02:18:06;11.20;76.20
51811;DHT22;52468;40.116;18.296;2023-04-15T02:20:37;11.20;76.10
51811;DHT22;52468;40.116;18.296;2023-04-15T02:23:07;11.10;76.00
51811;DHT22;52468;40.116;18.296;2023-04-15T02:25:37;11.10;76.00
51811;DHT22;52468;40.116;18.296;2023-04-15T02:28:06;11.10;76.10
51811;DHT22;52468;40.116;18.296;2023-04-15T02:30:35;11.00;76.30
51811;DHT22;52468;40.116;18.296;2023-04-15T02:33:05;11.00;76.20
51811;DHT22;52468;40.116;18.296;2023-04-15T02:35:35;11.00;76.20
51811;DHT22;52468;40.116;18.296;2023-04-15T02:38:07;11.00;76.10
51811;DHT22;52468;40.116;18.296;2023-04-15T02:40:36;10.90;76.20
51811;DHT22;52468;40.116;18.296;2023-04-15T02:43:05;10.80;76.20
51811;DHT22;52468;40.116;18.296;2023-04-15T02:45:36;10.80;76.20
51811;DHT22;52468;40.116;18.296;2023-04-15T02:48:06;10.80;76.30
51811;DHT22;52468;40.116;18.296;2023-04-15T02:50:37;10.80;76.30
51811;DHT22;52468;40.116;18.296;2023-04-15T02:53:14;10.80;76.30
51811;DHT22;52468;40.116;18.296;2023-04-15T02:55:44;10.90;76.30
51811;DHT22;52468;40.116;18.296;2023-04-15T02:58:13;10.90;76.20
51811;DHT22;52468;40.116;18.296;2023-04-15T03:00:42;10.90;75.90
51811;DHT22;52468;40.116;18.296;2023-04-15T03:03:11;10.90;75.90
51811;DHT22;52468;40.116;18.296;2023-04-15T03:05:43;10.90;76.00
51811;DHT22;52468;40.116;18.296;2023-04-15T03:08:13;10.90;75.80
51811;DHT22;52468;40.116;18.296;2023-04-15T03:10:42;10.90;75.80
51811;DHT22;52468;40.116;18.296;2023-04-15T03:13:12;11.00;75.70
51811;DHT22;52468;40.116;18.296;2023-04-15T03:15:41;11.00;75.50
51811;DHT22;52468;40.116;18.296;2023-04-15T03:18:11;11.00;75.30
51811;DHT22;52468;40.116;18.296;2023-04-15T03:20:41;11.10;75.20
51811;DHT22;52468;40.116;18.296;2023-04-15T03:23:11;11.00;75.00
51811;DHT22;52468;40.116;18.296;2023-04-15T03:25:40;11.00;74.90
51811;DHT22;52468;40.116;18.296;2023-04-15T03:28:10;11.00;74.80
51811;DHT22;52468;40.116;18.296;2023-04-15T03:30:39;11.00;74.60
51811;DHT22;52468;40.116;18.296;2023-04-15T03:33:09;10.90;74.50
51811;DHT22;52468;40.116;18.296;2023-04-15T03:35:39;10.80;74.50
51811;DHT22;52468;40.116;18.296;2023-04-15T03:38:08;10.60;74.60
51811;DHT22;52468;40.116;18.296;2023-04-15T03:40:40;10.60;74.90
51811;DHT22;52468;40.116;18.296;2023-04-15T03:43:10;10.50;74.90
51811;DHT22;52468;40.116;18.296;2023-04-15T03:45:39;10.50;75.20
51811;DHT22;52468;40.116;18.296;2023-04-15T03:48:08;10.40;75.50
51811;DHT22;52468;40.116;18.296;2023-04-15T03:50:44;10.40;75.50
51811;DHT22;52468;40.116;18.296;2023-04-15T03:53:14;10.40;75.50
51811;DHT22;52468;40.116;18.296;2023-04-15T03:55:43;10.30;75.80
51811;DHT22;52468;40.116;18.296;2023-04-15T03:58:12;10.30;75.90
51811;DHT22;52468;40.116;18.296;2023-04-15T04:00:41;10.30;76.00
51811;DHT22;52468;40.116;18.296;2023-04-15T04:03:11;10.30;75.70
51811;DHT22;52468;40.116;18.296;2023-04-15T04:05:40;10.30;75.60
51811;DHT22;52468;40.116;18.296;2023-04-15T04:08:09;10.30;75.50
51811;DHT22;52468;40.116;18.296;2023-04-15T04:10:41;10.30;75.70
51811;DHT22;52468;40.116;18.296;2023-04-15T04:13:10;10.30;76.10
51811;DHT22;52468;40.116;18.296;2023-04-15T04:15:39;10.30;76.20
51811;DHT22;52468;40.116;18.296;2023-04-15T04:18:09;10.30;76.30
51811;DHT22;52468;40.116;18.296;2023-04-15T04:20:38;10.40;76.40
51811;DHT22;52468;40.116;18.296;2023-04-15T04:23:07;10.40;76.50
51811;DHT22;52468;40.116;18.296;2023-04-15T04:25:36;10.50;76.60
51811;DHT22;52468;40.116;18.296;2023-04-15T04:28:05;10.50;76.80
51811;DHT22;52468;40.116;18.296;2023-04-15T04:30:35;10.70;76.90
51811;DHT22;52468;40.116;18.296;2023-04-15T04:33:04;10.80;76.80
51811;DHT22;52468;40.116;18.296;2023-04-15T04:35:33;10.90;77.10
51811;DHT22;52468;40.116;18.296;2023-04-15T04:38:05;11.00;77.10
51811;DHT22;52468;40.116;18.296;2023-04-15T04:40:34;11.20;76.70
51811;DHT22;52468;40.116;18.296;2023-04-15T04:43:03;11.30;76.50
51811;DHT22;52468;40.116;18.296;2023-04-15T04:45:32;11.50;76.20
51811;DHT22;52468;40.116;18.296;2023-04-15T04:48:02;11.60;76.10
51811;DHT22;52468;40.116;18.296;2023-04-15T04:50:35;11.60;76.10
51811;DHT22;52468;40.116;18.296;2023-04-15T04:53:04;11.80;76.10
51811;DHT22;52468;40.116;18.296;2023-04-15T04:55:34;12.00;76.00
51811;DHT22;52468;40.116;18.296;2023-04-15T04:58:04;12.10;75.80
51811;DHT22;52468;40.116;18.296;2023-04-15T05:00:33;12.30;75.80
51811;DHT22;52468;40.116;18.296;2023-04-15T05:03:03;12.50;75.40
51811;DHT22;52468;40.116;18.296;2023-04-15T05:05:32;12.80;75.60
51811;DHT22;52468;40.116;18.296;2023-04-15T05:08:03;13.10;75.10
51811;DHT22;52468;40.116;18.296;2023-04-15T05:10:33;13.30;75.30
51811;DHT22;52468;40.116;18.296;2023-04-15T05:13:02;13.60;74.80
51811;DHT22;52468;40.116;18.296;2023-04-15T05:15:31;13.80;74.60
51811;DHT22;52468;40.116;18.296;2023-04-15T05:18:02;14.00;74.50
51811;DHT22;52468;40.116;18.296;2023-04-15T05:20:31;14.20;73.70
51811;DHT22;52468;40.116;18.296;2023-04-15T05:23:00;14.40;73.40
51811;DHT22;52468;40.116;18.296;2023-04-15T05:25:30;14.50;72.80
51811;DHT22;52468;40.116;18.296;2023-04-15T05:27:59;14.50;72.20
51811;DHT22;52468;40.116;18.296;2023-04-15T05:30:28;14.60;72.00
51811;DHT22;52468;40.116;18.296;2023-04-15T05:32:57;14.80;71.80
51811;DHT22;52468;40.116;18.296;2023-04-15T05:35:26;15.10;71.70
51811;DHT22;52468;40.116;18.296;2023-04-15T05:37:55;15.40;71.20
51811;DHT22;52468;40.116;18.296;2023-04-15T05:40:24;15.60;69.70
51811;DHT22;52468;40.116;18.296;2023-04-15T05:42:54;15.70;68.90
51811;DHT22;52468;40.116;18.296;2023-04-15T05:45:24;15.80;67.60
51811;DHT22;52468;40.116;18.296;2023-04-15T05:47:53;15.80;65.90
51811;DHT22;52468;40.116;18.296;2023-04-15T05:50:23;15.90;65.40
51811;DHT22;52468;40.116;18.296;2023-04-15T05:52:52;16.00;64.90
51811;DHT22;52468;40.116;18.296;2023-04-15T05:55:21;16.10;63.20
51811;DHT22;52468;40.116;18.296;2023-04-15T05:57:51;16.30;63.80
51811;DHT22;52468;40.116;18.296;2023-04-15T06:00:20;16.50;63.10
51811;DHT22;52468;40.116;18.296;2023-04-15T06:02:50;16.80;62.60
51811;DHT22;52468;40.116;18.296;2023-04-15T06:05:19;17.00;61.70
51811;DHT22;52468;40.116;18.296;2023-04-15T06:07:48;17.30;61.10
51811;DHT22;52468;40.116;18.296;2023-04-15T06:10:18;17.50;60.80
51811;DHT22;52468;40.116;18.296;2023-04-15T06:12:47;17.90;59.80
51811;DHT22;52468;40.116;18.296;2023-04-15T06:15:16;18.20;59.10
51811;DHT22;52468;40.116;18.296;2023-04-15T06:17:45;18.60;57.70
51811;DHT22;52468;40.116;18.296;2023-04-15T06:20:14;18.90;55.60
51811;DHT22;52468;40.116;18.296;2023-04-15T06:22:43;19.10;54.60
51811;DHT22;52468;40.116;18.296;2023-04-15T06:25:13;19.30;54.40
51811;DHT22;52468;40.116;18.296;2023-04-15T06:27:42;19.50;53.50
51811;DHT22;52468;40.116;18.296;2023-04-15T06:30:11;19.50;53.10
51811;DHT22;52468;40.116;18.296;2023-04-15T06:32:40;19.50;52.70
51811;DHT22;52468;40.116;18.296;2023-04-15T06:35:09;19.50;52.80
51811;DHT22;52468;40.116;18.296;2023-04-15T06:37:39;19.50;52.50
51811;DHT22;52468;40.116;18.296;2023-04-15T06:40:08;19.30;52.70
51811;DHT22;52468;40.116;18.296;2023-04-15T06:42:38;19.20;52.80
51811;DHT22;52468;40.116;18.296;2023-04-15T06:45:07;19.20;53.00
51811;DHT22;52468;40.116;18.296;2023-04-15T06:47:37;19.30;53.20
51811;DHT22;52468;40.116;18.296;2023-04-15T06:50:06;19.30;52.90
51811;DHT22;52468;40.116;18.296;2023-04-15T06:52:37;19.30;52.40
51811;DHT22;52468;40.116;18.296;2023-04-15T06:55:06;19.30;52.10
51811;DHT22;52468;40.116;18.296;2023-04-15T06:57:35;19.20;52.40
51811;DHT22;52468;40.116;18.296;2023-04-15T07:00:05;19.30;52.70
51811;DHT22;52468;40.116;18.296;2023-04-15T07:02:35;19.20;53.10
51811;DHT22;52468;40.116;18.296;2023-04-15T07:05:05;19.20;53.70
51811;DHT22;52468;40.116;18.296;2023-04-15T07:07:35;19.40;53.80
51811;DHT22;52468;40.116;18.296;2023-04-15T07:10:04;19.60;54.00
51811;DHT22;52468;40.116;18.296;2023-04-15T07:12:34;19.90;53.40
51811;DHT22;52468;40.116;18.296;2023-04-15T07:15:04;20.10;52.90
51811;DHT22;52468;40.116;18.296;2023-04-15T07:17:33;20.20;51.30
51811;DHT22;52468;40.116;18.296;2023-04-15T07:20:02;20.20;50.30
51811;DHT22;52468;40.116;18.296;2023-04-15T07:22:32;20.10;49.10
51811;DHT22;52468;40.116;18.296;2023-04-15T07:25:02;20.20;48.80
51811;DHT22;52468;40.116;18.296;2023-04-15T07:27:29;20.20;48.50
51811;DHT22;52468;40.116;18.296;2023-04-15T07:29:58;20.30;48.60
51811;DHT22;52468;40.116;18.296;2023-04-15T07:32:28;20.50;48.00
51811;DHT22;52468;40.116;18.296;2023-04-15T07:34:57;20.50;47.50
51811;DHT22;52468;40.116;18.296;2023-04-15T07:37:26;20.60;46.70
51811;DHT22;52468;40.116;18.296;2023-04-15T07:39:56;20.80;46.30
51811;DHT22;52468;40.116;18.296;2023-04-15T07:42:25;21.00;45.10
51811;DHT22;52468;40.116;18.296;2023-04-15T07:44:54;21.00;44.10
51811;DHT22;52468;40.116;18.296;2023-04-15T07:47:24;21.00;43.90
51811;DHT22;52468;40.116;18.296;2023-04-15T07:49:54;21.10;43.60
51811;DHT22;52468;40.116;18.296;2023-04-15T07:52:24;21.30;43.50
51811;DHT22;52468;40.116;18.296;2023-04-15T07:54:53;21.60;43.30
51811;DHT22;52468;40.116;18.296;2023-04-15T07:57:22;21.80;42.30
51811;DHT22;52468;40.116;18.296;2023-04-15T07:59:51;21.80;42.20
51811;DHT22;52468;40.116;18.296;2023-04-15T08:02:21;21.90;41.30
51811;DHT22;52468;40.116;18.296;2023-04-15T08:04:51;21.70;41.60
51811;DHT22;52468;40.116;18.296;2023-04-15T08:07:21;21.60;40.50
51811;DHT22;52468;40.116;18.296;2023-04-15T08:09:50;21.70;40.70
51811;DHT22;52468;40.116;18.296;2023-04-15T08:12:20;21.90;40.50
51811;DHT22;52468;40.116;18.296;2023-04-15T08:14:52;22.00;40.30
51811;DHT22;52468;40.116;18.296;2023-04-15T08:17:21;22.00;40.10
51811;DHT22;52468;40.116;18.296;2023-04-15T08:19:50;21.90;39.50
51811;DHT22;52468;40.116;18.296;2023-04-15T08:22:19;21.90;39.60
51811;DHT22;52468;40.116;18.296;2023-04-15T08:24:48;21.90;40.20
51811;DHT22;52468;40.116;18.296;2023-04-15T08:27:18;22.00;40.00
51811;DHT22;52468;40.116;18.296;2023-04-15T08:29:47;22.10;39.20
51811;DHT22;52468;40.116;18.296;2023-04-15T08:32:16;22.20;39.10
51811;DHT22;52468;40.116;18.296;2023-04-15T08:34:49;22.50;37.90
51811;DHT22;52468;40.116;18.296;2023-04-15T08:37:18;22.50;37.90
51811;DHT22;52468;40.116;18.296;2023-04-15T08:39:47;22.50;38.20
51811;DHT22;52468;40.116;18.296;2023-04-15T08:42:20;22.60;38.20
51811;DHT22;52468;40.116;18.296;2023-04-15T08:44:51;22.40;37.80
51811;DHT22;52468;40.116;18.296;2023-04-15T08:47:23;22.10;38.60
51811;DHT22;52468;40.116;18.296;2023-04-15T08:49:56;22.30;38.50
51811;DHT22;52468;40.116;18.296;2023-04-15T08:52:26;22.50;38.00
51811;DHT22;52468;40.116;18.296;2023-04-15T08:54:57;22.50;37.50
51811;DHT22;52468;40.116;18.296;2023-04-15T08:57:29;22.80;37.70
51811;DHT22;52468;40.116;18.296;2023-04-15T09:00:01;22.90;36.90
51811;DHT22;52468;40.116;18.296;2023-04-15T09:02:33;22.90;36.40
51811;DHT22;52468;40.116;18.296;2023-04-15T09:05:02;22.90;35.90
51811;DHT22;52468;40.116;18.296;2023-04-15T09:07:34;22.90;36.30
51811;DHT22;52468;40.116;18.296;2023-04-15T09:10:04;23.20;35.50
51811;DHT22;52468;40.116;18.296;2023-04-15T09:12:34;23.20;35.20
51811;DHT22;52468;40.116;18.296;2023-04-15T09:15:05;23.30;34.10
51811;DHT22;52468;40.116;18.296;2023-04-15T09:17:34;23.60;34.70
51811;DHT22;52468;40.116;18.296;2023-04-15T09:20:10;23.60;34.40
51811;DHT22;52468;40.116;18.296;2023-04-15T09:22:42;24.00;34.30
51811;DHT22;52468;40.116;18.296;2023-04-15T09:27:54;23.90;33.60
51811;DHT22;52468;40.116;18.296;2023-04-15T09:30:24;24.00;33.60
51811;DHT22;52468;40.116;18.296;2023-04-15T09:32:57;24.40;33.50
51811;DHT22;52468;40.116;18.296;2023-04-15T09:35:27;24.60;33.50
51811;DHT22;52468;40.116;18.296;2023-04-15T09:38:08;24.60;32.80
51811;DHT22;52468;40.116;18.296;2023-04-15T09:40:41;24.40;32.50
51811;DHT22;52468;40.116;18.296;2023-04-15T09:43:10;24.40;33.10
51811;DHT22;52468;40.116;18.296;2023-04-15T09:45:51;24.40;33.40
51811;DHT22;52468;40.116;18.296;2023-04-15T09:48:22;24.20;34.20
51811;DHT22;52468;40.116;18.296;2023-04-15T09:50:57;24.00;34.80
51811;DHT22;52468;40.116;18.296;2023-04-15T09:53:27;23.90;35.20
51811;DHT22;52468;40.116;18.296;2023-04-15T09:55:58;24.10;35.20
51811;DHT22;52468;40.116;18.296;2023-04-15T09:58:33;24.00;35.50
51811;DHT22;52468;40.116;18.296;2023-04-15T10:01:04;23.80;35.90
51811;DHT22;52468;40.116;18.296;2023-04-15T10:03:34;23.60;36.40
51811;DHT22;52468;40.116;18.296;2023-04-15T10:06:05;23.40;36.90
51811;DHT22;52468;40.116;18.296;2023-04-15T10:08:34;23.30;37.20
51811;DHT22;52468;40.116;18.296;2023-04-15T10:11:04;23.30;37.40
51811;DHT22;52468;40.116;18.296;2023-04-15T10:13:35;23.90;36.60
51811;DHT22;52468;40.116;18.296;2023-04-15T10:16:09;24.00;36.00
51811;DHT22;52468;40.116;18.296;2023-04-15T10:18:43;23.80;35.80
51811;DHT22;52468;40.116;18.296;2023-04-15T10:21:13;23.80;36.30
51811;DHT22;52468;40.116;18.296;2023-04-15T10:23:46;23.60;36.70
51811;DHT22;52468;40.116;18.296;2023-04-15T10:26:16;23.40;37.20
51811;DHT22;52468;40.116;18.296;2023-04-15T10:28:45;23.20;37.30
51811;DHT22;52468;40.116;18.296;2023-04-15T10:31:18;23.30;37.30
51811;DHT22;52468;40.116;18.296;2023-04-15T10:33:48;23.30;36.40
51811;DHT22;52468;40.116;18.296;2023-04-15T10:36:18;23.10;36.70
51811;DHT22;52468;40.116;18.296;2023-04-15T10:38:48;23.00;37.00
51811;DHT22;52468;40.116;18.296;2023-04-15T10:41:21;23.40;36.70
51811;DHT22;52468;40.116;18.296;2023-04-15T10:43:53;23.70;36.40
51811;DHT22;52468;40.116;18.296;2023-04-15T10:48:53;24.00;35.00
51811;DHT22;52468;40.116;18.296;2023-04-15T10:51:29;24.20;34.10
51811;DHT22;52468;40.116;18.296;2023-04-15T10:53:59;24.50;33.70
51811;DHT22;52468;40.116;18.296;2023-04-15T10:56:29;24.60;32.80
51811;DHT22;52468;40.116;18.296;2023-04-15T10:58:59;24.60;32.70
51811;DHT22;52468;40.116;18.296;2023-04-15T11:01:55;24.40;32.90
51811;DHT22;52468;40.116;18.296;2023-04-15T11:04:56;24.40;32.90
51811;DHT22;52468;40.116;18.296;2023-04-15T11:07:46;24.50;32.30
51811;DHT22;52468;40.116;18.296;2023-04-15T11:15:46;24.60;33.30
51811;DHT22;52468;40.116;18.296;2023-04-15T11:18:27;25.40;33.20
51811;DHT22;52468;40.116;18.296;2023-04-15T11:21:00;25.90;31.10
51811;DHT22;52468;40.116;18.296;2023-04-15T11:23:35;26.20;30.50
51811;DHT22;52468;40.116;18.296;2023-04-15T11:26:07;26.30;29.90
51811;DHT22;52468;40.116;18.296;2023-04-15T11:28:43;26.30;29.60
51811;DHT22;52468;40.116;18.296;2023-04-15T11:31:17;26.30;29.80
51811;DHT22;52468;40.116;18.296;2023-04-15T11:33:57;26.50;28.80
51811;DHT22;52468;40.116;18.296;2023-04-15T11:36:28;26.60;29.20
51811;DHT22;52468;40.116;18.296;2023-04-15T11:38:59;26.80;27.70
51811;DHT22;52468;40.116;18.296;2023-04-15T11:41:29;26.30;28.40
51811;DHT22;52468;40.116;18.296;2023-04-15T11:43:58;26.00;28.20
51811;DHT22;52468;40.116;18.296;2023-04-15T11:46:30;25.50;28.80
51811;DHT22;52468;40.116;18.296;2023-04-15T11:48:59;25.50;30.30
51811;DHT22;52468;40.116;18.296;2023-04-15T11:51:33;25.50;29.80
51811;DHT22;52468;40.116;18.296;2023-04-15T11:54:01;25.40;29.90
51811;DHT22;52468;40.116;18.296;2023-04-15T11:56:30;25.50;30.00
51811;DHT22;52468;40.116;18.296;2023-04-15T11:58:58;25.50;30.10
51811;DHT22;52468;40.116;18.296;2023-04-15T12:01:35;25.50;30.10
51811;DHT22;52468;40.116;18.296;2023-04-15T12:04:14;25.50;30.40
51811;DHT22;52468;40.116;18.296;2023-04-15T12:06:44;25.50;30.30
51811;DHT22;52468;40.116;18.296;2023-04-15T12:09:12;25.80;29.80
51811;DHT22;52468;40.116;18.296;2023-04-15T12:11:48;26.00;29.20
51811;DHT22;52468;40.116;18.296;2023-04-15T12:16:51;25.90;29.20
51811;DHT22;52468;40.116;18.296;2023-04-15T12:19:29;25.90;29.30
51811;DHT22;52468;40.116;18.296;2023-04-15T12:22:01;26.20;28.30
51811;DHT22;52468;40.116;18.296;2023-04-15T12:24:33;26.30;28.20
51811;DHT22;52468;40.116;18.296;2023-04-15T12:27:03;26.40;28.40
51811;DHT22;52468;40.116;18.296;2023-04-15T12:29:32;26.60;28.20
51811;DHT22;52468;40.116;18.296;2023-04-15T12:32:13;26.90;28.60
51811;DHT22;52468;40.116;18.296;2023-04-15T12:34:51;27.10;28.30
51811;DHT22;52468;40.116;18.296;2023-04-15T12:37:19;26.90;28.80
51811;DHT22;52468;40.116;18.296;2023-04-15T12:39:49;26.70;28.90
51811;DHT22;52468;40.116;18.296;2023-04-15T12:42:17;26.60;28.70
51811;DHT22;52468;40.116;18.296;2023-04-15T12:44:45;26.50;28.70
51811;DHT22;52468;40.116;18.296;2023-04-15T12:47:13;26.10;29.20
51811;DHT22;52468;40.116;18.296;2023-04-15T12:49:41;25.90;29.30
51811;DHT22;52468;40.116;18.296;2023-04-15T12:52:09;25.80;28.60
51811;DHT22;52468;40.116;18.296;2023-04-15T12:54:38;25.80;27.80
51811;DHT22;52468;40.116;18.296;2023-04-15T12:57:05;25.60;28.00
51811;DHT22;52468;40.116;18.296;2023-04-15T12:59:34;25.30;28.20
51811;DHT22;52468;40.116;18.296;2023-04-15T13:02:03;25.20;28.50
51811;DHT22;52468;40.116;18.296;2023-04-15T13:04:31;25.00;29.30
51811;DHT22;52468;40.116;18.296;2023-04-15T13:07:00;24.90;29.80
51811;DHT22;52468;40.116;18.296;2023-04-15T13:09:28;24.90;30.30
51811;DHT22;52468;40.116;18.296;2023-04-15T13:11:56;25.00;30.10
51811;DHT22;52468;40.116;18.296;2023-04-15T13:14:24;25.00;30.80
51811;DHT22;52468;40.116;18.296;2023-04-15T13:16:53;25.30;30.70
51811;DHT22;52468;40.116;18.296;2023-04-15T13:19:21;25.50;30.60
51811;DHT22;52468;40.116;18.296;2023-04-15T13:21:49;25.30;31.50
51811;DHT22;52468;40.116;18.296;2023-04-15T13:24:17;25.40;31.20
51811;DHT22;52468;40.116;18.296;2023-04-15T13:26:45;25.80;30.20
51811;DHT22;52468;40.116;18.296;2023-04-15T13:29:14;25.90;29.20
51811;DHT22;52468;40.116;18.296;2023-04-15T13:31:42;26.00;28.70
51811;DHT22;52468;40.116;18.296;2023-04-15T13:34:10;26.30;28.90
51811;DHT22;52468;40.116;18.296;2023-04-15T13:39:06;27.00;29.50
51811;DHT22;52468;40.116;18.296;2023-04-15T13:41:33;27.90;27.30
51811;DHT22;52468;40.116;18.296;2023-04-15T13:44:02;28.10;26.60
51811;DHT22;52468;40.116;18.296;2023-04-15T13:46:30;28.40;27.80
51811;DHT22;52468;40.116;18.296;2023-04-15T13:48:57;29.10;26.90
51811;DHT22;52468;40.116;18.296;2023-04-15T13:56:23;33.00;24.10
51811;DHT22;52468;40.116;18.296;2023-04-15T13:58:51;33.60;23.30
51811;DHT22;52468;40.116;18.296;2023-04-15T14:01:19;33.50;23.00
51811;DHT22;52468;40.116;18.296;2023-04-15T14:03:47;32.40;23.60
51811;DHT22;52468;40.116;18.296;2023-04-15T14:06:15;31.20;25.00
51811;DHT22;52468;40.116;18.296;2023-04-15T14:08:43;30.50;26.00
51811;DHT22;52468;40.116;18.296;2023-04-15T14:11:11;30.20;26.30
51811;DHT22;52468;40.116;18.296;2023-04-15T14:13:39;30.30;26.40
51811;DHT22;52468;40.116;18.296;2023-04-15T14:16:06;30.30;26.60
51811;DHT22;52468;40.116;18.296;2023-04-15T14:18:34;30.00;26.90
51811;DHT22;52468;40.116;18.296;2023-04-15T14:21:05;29.50;27.00
51811;DHT22;52468;40.116;18.296;2023-04-15T14:23:33;29.90;27.20
51811;DHT22;52468;40.116;18.296;2023-04-15T14:26:01;30.70;26.90
51811;DHT22;52468;40.116;18.296;2023-04-15T14:28:29;30.60;27.20
51811;DHT22;52468;40.116;18.296;2023-04-15T14:30:57;30.00;27.40
51811;DHT22;52468;40.116;18.296;2023-04-15T14:33:24;29.10;28.40
51811;DHT22;52468;40.116;18.296;2023-04-15T14:35:52;27.90;30.00
51811;DHT22;52468;40.116;18.296;2023-04-15T14:38:20;26.80;31.60
51811;DHT22;52468;40.116;18.296;2023-04-15T14:40:49;26.00;32.80
51811;DHT22;52468;40.116;18.296;2023-04-15T14:43:17;25.90;33.30
51811;DHT22;52468;40.116;18.296;2023-04-15T14:45:44;25.90;33.20
51811;DHT22;52468;40.116;18.296;2023-04-15T14:48:12;25.70;33.90
51811;DHT22;52468;40.116;18.296;2023-04-15T14:50:40;25.30;33.90
51811;DHT22;52468;40.116;18.296;2023-04-15T14:53:08;24.70;35.00
51811;DHT22;52468;40.116;18.296;2023-04-15T14:55:36;24.30;35.60
51811;DHT22;52468;40.116;18.296;2023-04-15T14:58:04;24.10;36.10
51811;DHT22;52468;40.116;18.296;2023-04-15T15:00:32;24.10;36.60
51811;DHT22;52468;40.116;18.296;2023-04-15T15:03:00;24.20;36.20
51811;DHT22;52468;40.116;18.296;2023-04-15T15:05:28;25.50;34.20
51811;DHT22;52468;40.116;18.296;2023-04-15T15:07:56;27.80;30.70
51811;DHT22;52468;40.116;18.296;2023-04-15T15:10:24;29.80;27.70
51811;DHT22;52468;40.116;18.296;2023-04-15T15:12:52;31.40;25.20
51811;DHT22;52468;40.116;18.296;2023-04-15T15:15:20;32.60;23.60
51811;DHT22;52468;40.116;18.296;2023-04-15T15:17:52;32.00;24.10
51811;DHT22;52468;40.116;18.296;2023-04-15T15:20:20;30.60;25.30
51811;DHT22;52468;40.116;18.296;2023-04-15T15:22:49;28.50;27.70
51811;DHT22;52468;40.116;18.296;2023-04-15T15:25:17;26.80;30.00
51811;DHT22;52468;40.116;18.296;2023-04-15T15:27:45;25.50;31.80
51811;DHT22;52468;40.116;18.296;2023-04-15T15:30:13;24.50;33.60
51811;DHT22;52468;40.116;18.296;2023-04-15T15:32:41;23.90;34.40
51811;DHT22;52468;40.116;18.296;2023-04-15T15:35:10;23.40;35.30
51811;DHT22;52468;40.116;18.296;2023-04-15T15:37:38;23.00;36.30
51811;DHT22;52468;40.116;18.296;2023-04-15T15:40:06;22.60;37.10
51811;DHT22;52468;40.116;18.296;2023-04-15T15:42:34;22.40;37.80
51811;DHT22;52468;40.116;18.296;2023-04-15T15:45:03;22.10;38.90
51811;DHT22;52468;40.116;18.296;2023-04-15T15:47:31;21.90;39.50
51811;DHT22;52468;40.116;18.296;2023-04-15T15:49:59;21.70;40.40
51811;DHT22;52468;40.116;18.296;2023-04-15T15:52:28;21.60;41.50